Northern & Central Napa County

32 Stations

15 Minute Data | America/Los_Angeles
as of 5/7/26 12:13 PM PDT
Station Date Time Temp (°F) RH (%) Dew Pt (°F) Wind Spd (mph) Wind Dir (°) Wind Gust (mph) Latest Rain (In) Daily Rain (In) Daily Max Temp (°F) Daily Min Temp (°F)
Calistoga-North 5/7/26 1200 75.3   4.4 57   6 59.2   1.5 - - - 0.00 0.00 76.0   5.2 51.8   3.2
Stags Leap Dist (Chimney Rock) 5/7/26 1200 62.9   4.3 80   11 56.8   0.0 3.7   2.3 SSE | 167 7.5   3.3 0.00 0.00 63.5   4.0 52.4   2.2
Diamond Mtn (McEachran) 5/7/26 1200 68.8   0.6 65   8 56.4   3.1 - - - - - 69.1   0.5 50.4   3.4
Diamond Mtn (Schramsberg) 5/7/26 1200 65.9   1.2 69   10 55.5   3.1 - - - 0.00 0.00 66.6   1.6 49.3   3.2
Stags Leap Dist (Silverado Vineyards) 5/7/26 1200 62.8   4.1 73   10 53.8   0.4 3.2   1.9 SE | 137 7.5   2.8 0.00 0.00 63.4   4.3 51.9   2.2
Oak Knoll-East (Ranch 53) 5/7/26 1200 63.0   6.0 72   13 54.0   0.1 2.2   0.7 SE | 128 5.0   0.5 0.00 0.00 64.2   5.1 52.6   2.8
Rutherford-North (Mee Ln) 5/7/26 1200 65.0   3.6 72   8 55.8   0.0 2.7   0.7 SSE | 155 6.6   0.0 0.00 0.00 66.0   4.4 50.2   4.2
Frisinger Napa-NW 5/7/26 1200 63.9   5.4 74   11 55.6   0.8 4.0   2.4 SSE | 147 8.0   2.6 0.00 0.00 64.7   4.7 53.0   2.1
Napa-North (Ranch 29) 5/7/26 1200 62.0   5.3 76   12 54.2   0.1 2.7   1.2 SW | 217 6.5   2.2 0.00 0.00 62.5   6.0 51.9   3.1
St. Helena (NVV Office) 5/7/26 1200 67.7   3.1 - - 2.1   0.2 ESE | 118 5.2   0.0 0.00 0.00 68.5   2.7 53.2   2.9
Crossroads Ranch 5/7/26 1200 64.0   3.0 75   9 56.0   0.6 4.6   1.7 ESE | 122 7.5   1.1 0.00 0.00 64.2   2.9 53.1   2.5
Oakville 5/7/26 1200 64.2   3.1 72   9 55.0   0.6 4.6   2.4 SE | 141 8.2   2.6 0.00 0.00 64.7   3.7 52.8   2.7
OV561-East 5/7/26 1200 64.5   2.9 - - - - - - - 65.2   2.6 53.2   2.1
OV518-West 5/7/26 1200 64.7   3.0 - - - - - - - 65.5   2.7 53.1   2.3
Napa-NW (Ranch 54) 5/7/26 1200 67.6   3.7 64   10 54.9   1.2 0.9   0.3 ESE | 103 3.8   0.5 0.00 0.00 68.0   4.0 52.9   2.6
Calistoga (Ranch 78) 5/7/26 1200 71.5   0.5 59   6 56.2   3.3 1.8   0.2 ESE | 115 4.4   2.8 0.00 0.00 71.5   0.4 51.7   3.5
Yountville-SE (Ranch 85) 5/7/26 1200 61.9   5.9 77   14 54.6   0.2 3.1   1.4 S | 185 6.4   1.4 0.00 0.00 62.6   5.6 52.8   2.2
Yountville-South (Ranch 87) 5/7/26 1200 62.6   5.4 76   13 55.0   0.0 3.4   1.4 ESE | 105 6.8   2.7 0.00 0.00 63.4   5.3 52.6   2.6
Rutherford Hill Estate 5/7/26 1200 63.9   3.2 75   8 55.8   0.1 2.6   0.1 SW | 217 6.6   0.9 0.00 0.00 64.6   3.1 51.8   2.6
Rutherford (STS) 5/7/26 1200 67.4   2.0 76   6 59.4   0.5 2.0   0.1 SSE | 148 6.6   2.2 0.00 0.00 67.4   4.1 52.7   2.4
Borreo (Soda Canyon) 5/7/26 1200 62.0   3.0 75   9 53.8   0.5 2.6   1.2 SSE | 151 6.8   3.1 0.00 0.00 62.5   3.0 49.6   3.0
Oakville-NE (Ranch 88) 5/7/26 1200 65.9   2.2 67   5 54.7   0.1 2.9   1.0 S | 188 7.9   3.0 0.00 0.00 66.9   1.9 52.6   3.0
Soda Canyon 5/7/26 1200 60.6   5.8 81   10 54.8   1.9 2.5   1.0 SSE | 166 7.1   3.5 0.00 0.00 61.7   5.2 47.3   6.8
Silver Oak OV 5/7/26 1200 64.1   3.2 75   9 56.1   0.5 3.9   1.4 SSE | 153 7.6   1.8 0.00 0.00 64.7   3.5 53.0   2.7
Tiara Fria (East St. Helena) 5/7/26 1200 64.8   3.8 71   8 55.2   0.4 3.4   1.0 SE | 141 8.1   2.6 0.00 0.00 65.1   4.1 53.3   3.0
To Kalon Remote (TKKE) 5/7/26 1200 65.8   3.0 - - - - - - - 66.6   2.7 53.2   2.9
To Kalon 5/7/26 1200 64.1   4.3 74   11 55.8   0.3 3.3   1.2 SE | 131 7.0   0.9 0.00 0.00 64.8   4.3 53.1   2.2
To Kalon Remote (TKN5) 5/7/26 1200 65.6   3.3 - - - - - - - 66.7   2.7 53.4   2.3
St. Helena-North 5/7/26 1200 67.7   2.1 62   9 54.1   2.2 3.5   1.5 S | 170 7.7   2.2 0.00 0.00 68.1   2.9 52.5   2.8
Twomey Calistoga 5/7/26 1200 72.2   0.4 58   5 56.6   2.0 1.6   0.1 E | 98 4.6   0.7 0.00 0.00 72.2   0.4 52.1   2.9
Wappo Hill Floor 5/7/26 1200 63.6   6.0 74   13 55.1   0.4 3.3   1.0 SSE | 153 7.9   2.8 0.00 0.00 63.8   5.8 51.4   2.7
Yountville (Ranch 67) 5/7/26 1200 64.0   3.8 69   7 53.5   0.5 4.1   2.2 SSE | 153 8.6   3.2 0.00 0.00 64.0   4.1 52.0   2.4
Max     75.3 81 59.4 4.6 - 8.6 0.00 0.00 76.0 53.4
Avg     65.3 71 55.5 3.0 - 6.8 0.00 - - -
Min     60.6 57 53.5 0.9 - 3.8 0.00 0.00 61.7 47.3